createdAt,value
2023-03-18T00:02:25.044Z,54.26
2023-03-18T00:04:54.446Z,55.14
2023-03-18T00:07:22.560Z,55.27
2023-03-18T00:09:52.792Z,55.21
2023-03-18T00:12:20.943Z,54.36
2023-03-18T00:14:48.836Z,54.48
2023-03-18T00:17:16.682Z,55.07
2023-03-18T00:19:44.554Z,55.91
2023-03-18T00:22:14.368Z,55.38
2023-03-18T00:24:42.205Z,56.44
2023-03-18T00:27:10.320Z,56.48
2023-03-18T00:29:38.463Z,56.13
2023-03-18T00:32:06.860Z,56.08
2023-03-18T00:34:34.631Z,56.51
2023-03-18T00:37:02.397Z,56.92
2023-03-18T00:39:33.107Z,57.32
2023-03-18T00:42:10.410Z,58.78
2023-03-18T00:44:38.345Z,57.25
2023-03-18T00:47:06.480Z,57.82
2023-03-18T00:49:35.122Z,59.00
2023-03-18T00:52:02.864Z,58.70
2023-03-18T00:54:32.536Z,58.48
2023-03-18T00:57:00.468Z,59.40
2023-03-18T00:59:29.646Z,57.03
2023-03-18T01:01:57.593Z,57.10
2023-03-18T01:04:27.931Z,57.93
2023-03-18T01:06:55.721Z,56.52
2023-03-18T01:09:23.658Z,57.71
2023-03-18T01:11:52.943Z,57.08
2023-03-18T01:14:20.906Z,57.08
2023-03-18T01:16:49.070Z,57.05
2023-03-18T01:19:16.989Z,57.87
2023-03-18T01:21:44.889Z,57.84
2023-03-18T01:24:13.159Z,57.70
2023-03-18T01:26:40.947Z,57.85
2023-03-18T01:29:10.718Z,57.57
2023-03-18T01:31:38.759Z,58.57
2023-03-18T01:34:12.594Z,57.13
2023-03-18T01:36:53.880Z,57.18
2023-03-18T01:39:24.782Z,59.30
2023-03-18T01:41:52.779Z,58.76
2023-03-18T01:44:30.848Z,61.01
2023-03-18T01:47:00.401Z,60.82
2023-03-18T01:49:32.900Z,61.15
2023-03-18T01:52:08.200Z,61.60
2023-03-18T01:54:41.866Z,60.59
2023-03-18T01:57:09.755Z,61.68
2023-03-18T01:59:42.863Z,60.45
2023-03-18T02:02:13.012Z,60.44
2023-03-18T02:04:43.305Z,59.68
2023-03-18T02:07:16.597Z,59.46
2023-03-18T02:09:44.923Z,58.85
2023-03-18T02:12:14.390Z,60.09
2023-03-18T02:14:43.776Z,61.66
2023-03-18T02:17:16.722Z,62.23
2023-03-18T02:19:55.969Z,58.92
2023-03-18T02:22:29.569Z,60.00
2023-03-18T02:25:13.612Z,61.53
2023-03-18T02:27:45.990Z,61.33
2023-03-18T02:30:19.569Z,60.91
2023-03-18T02:32:51.596Z,60.79
2023-03-18T02:35:20.687Z,59.86
2023-03-18T02:37:49.377Z,60.39
2023-03-18T02:40:21.949Z,61.09
2023-03-18T02:42:52.318Z,61.39
2023-03-18T02:45:37.034Z,60.75
2023-03-18T02:48:16.121Z,60.20
2023-03-18T02:50:44.103Z,63.13
2023-03-18T02:53:13.408Z,63.85
2023-03-18T02:55:42.334Z,62.41
2023-03-18T02:58:12.235Z,65.44
2023-03-18T03:00:40.895Z,63.61
2023-03-18T03:03:08.819Z,62.83
2023-03-18T03:05:36.986Z,65.87
2023-03-18T03:08:06.195Z,64.69
2023-03-18T03:10:37.912Z,63.99
2023-03-18T03:13:07.414Z,65.64
2023-03-18T03:15:37.005Z,66.90
2023-03-18T03:18:05.319Z,66.74
2023-03-18T03:20:35.415Z,67.84
2023-03-18T03:23:03.471Z,70.87
2023-03-18T03:25:32.452Z,72.14
2023-03-18T03:28:00.296Z,71.78
2023-03-18T03:30:28.706Z,73.37
2023-03-18T03:33:01.615Z,71.27
2023-03-18T03:35:29.706Z,71.10
2023-03-18T03:37:59.030Z,70.73
2023-03-18T03:40:27.720Z,70.45
2023-03-18T03:42:55.582Z,70.59
2023-03-18T03:45:24.933Z,70.58
2023-03-18T03:47:54.657Z,70.34
2023-03-18T03:50:24.167Z,70.41
2023-03-18T03:52:53.009Z,70.80
2023-03-18T03:55:23.726Z,71.18
2023-03-18T03:57:52.506Z,70.36
2023-03-18T04:00:22.892Z,70.29
2023-03-18T04:02:52.570Z,70.07
2023-03-18T04:05:24.878Z,70.33
2023-03-18T04:07:53.823Z,70.37
2023-03-18T04:10:32.030Z,69.46
2023-03-18T04:13:00.123Z,71.62
2023-03-18T04:15:28.878Z,70.84
2023-03-18T04:17:56.836Z,71.26
2023-03-18T04:20:27.548Z,71.27
2023-03-18T04:22:55.460Z,71.58
2023-03-18T04:25:24.790Z,71.33
2023-03-18T04:27:54.059Z,70.61
2023-03-18T04:30:23.380Z,71.81
2023-03-18T04:33:17.878Z,72.15
2023-03-18T04:35:48.963Z,72.96
2023-03-18T04:38:19.384Z,72.95
2023-03-18T04:40:49.843Z,73.05
2023-03-18T04:43:18.195Z,72.39
2023-03-18T04:45:48.278Z,71.58
2023-03-18T04:48:16.873Z,72.20
2023-03-18T04:50:47.538Z,69.94
2023-03-18T04:53:20.886Z,68.43
2023-03-18T04:55:49.730Z,68.35
2023-03-18T04:58:18.295Z,69.21
2023-03-18T05:00:58.639Z,68.93
2023-03-18T05:03:32.898Z,68.45
2023-03-18T05:06:02.350Z,69.33
2023-03-18T05:08:40.291Z,69.63
2023-03-18T05:11:08.104Z,69.56
2023-03-18T05:13:37.441Z,70.09
2023-03-18T05:16:06.976Z,69.79
2023-03-18T05:18:35.615Z,70.49
2023-03-18T05:21:07.460Z,71.44
2023-03-18T05:23:35.688Z,71.21
2023-03-18T05:26:04.256Z,70.40
2023-03-18T05:28:32.831Z,69.50
2023-03-18T05:31:27.237Z,67.84
2023-03-18T05:33:55.100Z,67.23
2023-03-18T05:36:26.006Z,66.44
2023-03-18T05:39:00.136Z,67.00
2023-03-18T05:41:28.324Z,66.27
2023-03-18T05:43:57.359Z,65.62
2023-03-18T05:46:27.096Z,65.57
2023-03-18T05:49:15.138Z,65.11
2023-03-18T05:51:54.730Z,65.81
2023-03-18T05:54:34.113Z,64.69
2023-03-18T05:57:02.473Z,64.90
2023-03-18T05:59:31.426Z,64.91
2023-03-18T06:02:01.625Z,64.12
2023-03-18T06:04:29.777Z,62.79
2023-03-18T06:06:59.122Z,62.42
2023-03-18T06:09:27.309Z,63.16
2023-03-18T06:11:55.225Z,63.28
2023-03-18T06:14:25.890Z,62.50
2023-03-18T06:16:54.171Z,62.02
2023-03-18T06:19:22.940Z,63.23
2023-03-18T06:21:50.927Z,62.42
2023-03-18T06:24:20.015Z,62.02
2023-03-18T06:26:47.938Z,62.16
2023-03-18T06:29:16.278Z,61.60
2023-03-18T06:31:44.762Z,61.30
2023-03-18T06:34:15.331Z,61.10
2023-03-18T06:36:44.231Z,60.57
2023-03-18T06:39:18.955Z,60.65
2023-03-18T06:41:48.206Z,60.49
2023-03-18T06:44:32.497Z,60.47
2023-03-18T06:47:09.976Z,61.04
2023-03-18T06:49:41.318Z,59.83
2023-03-18T06:52:18.111Z,59.25
2023-03-18T06:54:47.721Z,59.28
2023-03-18T06:57:19.759Z,59.83
2023-03-18T06:59:50.704Z,59.60
2023-03-18T07:02:18.855Z,60.84
2023-03-18T07:04:46.796Z,60.92
2023-03-18T07:07:14.714Z,60.03
2023-03-18T07:09:44.830Z,60.23
2023-03-18T07:12:14.781Z,60.66
2023-03-18T07:14:45.164Z,60.66
2023-03-18T07:17:14.398Z,60.53
2023-03-18T07:19:42.459Z,60.83
2023-03-18T07:22:11.408Z,60.19
2023-03-18T07:24:39.276Z,61.08
2023-03-18T07:27:08.095Z,59.45
2023-03-18T07:29:36.266Z,57.82
2023-03-18T07:32:06.018Z,57.80
2023-03-18T07:34:33.782Z,57.32
2023-03-18T07:37:02.372Z,58.45
2023-03-18T07:39:30.257Z,59.03
2023-03-18T07:41:57.992Z,59.45
2023-03-18T07:44:30.370Z,58.78
2023-03-18T07:46:58.663Z,59.35
2023-03-18T07:49:27.874Z,58.13
2023-03-18T07:51:55.875Z,57.76
2023-03-18T07:54:23.936Z,58.74
2023-03-18T07:56:51.886Z,58.01
2023-03-18T07:59:20.820Z,56.69
2023-03-18T08:01:49.005Z,55.16
2023-03-18T08:04:17.844Z,52.50
2023-03-18T08:06:47.498Z,51.35
2023-03-18T08:09:15.860Z,51.75
2023-03-18T08:11:43.643Z,52.25
2023-03-18T08:14:11.745Z,52.49
2023-03-18T08:16:39.535Z,52.66
2023-03-18T08:19:07.425Z,51.24
2023-03-18T08:21:35.420Z,50.08
2023-03-18T08:24:04.964Z,49.24
2023-03-18T08:26:32.724Z,48.59
2023-03-18T08:29:00.452Z,49.08
2023-03-18T08:31:28.305Z,50.91
2023-03-18T08:33:56.335Z,50.50
2023-03-18T08:36:25.145Z,49.78
2023-03-18T08:38:52.960Z,50.80
2023-03-18T08:41:22.217Z,51.63
2023-03-18T08:43:52.339Z,49.74
2023-03-18T08:46:20.404Z,49.39
2023-03-18T08:48:48.837Z,49.04
2023-03-18T08:51:17.605Z,49.00
2023-03-18T08:53:45.652Z,47.62
2023-03-18T08:56:14.810Z,49.29
2023-03-18T08:58:44.969Z,49.86
2023-03-18T09:01:13.609Z,49.00
2023-03-18T09:03:41.817Z,48.28
2023-03-18T09:06:10.284Z,47.14
2023-03-18T09:08:39.514Z,47.25
2023-03-18T09:11:07.966Z,47.54
2023-03-18T09:13:38.055Z,49.68
2023-03-18T09:16:09.624Z,51.63
2023-03-18T09:18:38.034Z,49.12
2023-03-18T09:21:06.814Z,48.37
2023-03-18T09:23:35.835Z,46.39
2023-03-18T09:26:03.846Z,45.94
2023-03-18T09:28:32.486Z,47.12
2023-03-18T09:31:00.314Z,46.91
2023-03-18T09:33:29.886Z,46.76
2023-03-18T09:35:57.899Z,46.69
2023-03-18T09:38:25.799Z,48.07
2023-03-18T09:41:04.105Z,47.03
2023-03-18T09:43:46.269Z,48.65
2023-03-18T09:46:26.138Z,46.58
2023-03-18T09:49:22.486Z,45.74
2023-03-18T09:51:58.556Z,47.91
2023-03-18T09:54:34.879Z,47.85
2023-03-18T09:57:04.994Z,49.00
2023-03-18T09:59:39.703Z,47.74
2023-03-18T10:02:20.067Z,47.28
2023-03-18T10:05:00.624Z,47.40
2023-03-18T10:07:33.016Z,46.33
2023-03-18T10:10:06.496Z,45.19
2023-03-18T10:12:38.354Z,45.04
2023-03-18T10:15:14.772Z,48.61
2023-03-18T10:17:45.515Z,47.63
2023-03-18T10:20:32.158Z,45.25
2023-03-18T10:23:12.397Z,43.84
2023-03-18T10:25:44.800Z,43.45
2023-03-18T10:28:47.406Z,44.41
2023-03-18T10:31:25.893Z,42.85
2023-03-18T10:33:59.526Z,43.53
2023-03-18T10:36:36.610Z,43.67
2023-03-18T10:39:05.227Z,41.65
2023-03-18T10:41:36.716Z,42.97
2023-03-18T10:44:14.503Z,42.63
2023-03-18T10:46:45.034Z,41.29
2023-03-18T10:49:19.922Z,41.78
2023-03-18T10:51:54.584Z,40.74
2023-03-18T10:54:25.834Z,40.72
2023-03-18T10:56:53.943Z,40.40
2023-03-18T10:59:24.535Z,39.82
2023-03-18T11:01:56.180Z,38.55
2023-03-18T11:04:25.361Z,39.61
2023-03-18T11:06:59.136Z,39.08
2023-03-18T11:09:32.983Z,35.45
2023-03-18T11:12:05.630Z,34.48
2023-03-18T11:14:34.751Z,32.46
2023-03-18T11:17:04.810Z,29.56
2023-03-18T11:19:33.701Z,29.10
2023-03-18T11:22:06.865Z,29.78
2023-03-18T11:24:42.319Z,32.27
2023-03-18T11:27:29.728Z,32.58
2023-03-18T11:30:01.926Z,28.73
2023-03-18T11:32:34.122Z,28.52
2023-03-18T11:35:03.776Z,28.15
2023-03-18T11:37:35.544Z,26.68
2023-03-18T11:40:23.653Z,28.18
2023-03-18T11:42:56.678Z,27.17
2023-03-18T11:45:43.122Z,24.03
2023-03-18T11:48:20.924Z,24.48
2023-03-18T11:51:02.207Z,27.07
2023-03-18T11:53:47.888Z,25.00
2023-03-18T11:56:24.691Z,26.61
2023-03-18T11:59:13.433Z,25.54
2023-03-18T12:01:50.915Z,22.58
2023-03-18T12:04:38.108Z,23.43
2023-03-18T12:07:24.565Z,19.94
2023-03-18T12:10:03.759Z,22.89
2023-03-18T12:12:48.391Z,25.70
2023-03-18T12:15:25.926Z,25.64
2023-03-18T12:18:01.205Z,29.26
2023-03-18T12:20:47.007Z,27.18
2023-03-18T12:23:37.493Z,28.37
2023-03-18T12:26:09.572Z,31.48
2023-03-18T12:28:48.008Z,26.33
2023-03-18T12:31:31.968Z,23.78
2023-03-18T12:34:02.854Z,22.61
2023-03-18T12:36:50.147Z,23.58
2023-03-18T12:39:52.708Z,28.72
2023-03-18T12:42:38.969Z,29.06
2023-03-18T12:45:11.369Z,28.31
2023-03-18T12:47:45.563Z,21.27
2023-03-18T12:50:17.938Z,21.50
2023-03-18T12:52:49.286Z,22.64
2023-03-18T12:55:20.090Z,22.63
2023-03-18T12:57:51.647Z,23.31
2023-03-18T13:00:24.841Z,25.71
2023-03-18T13:03:07.470Z,26.49
2023-03-18T13:05:45.392Z,28.57
2023-03-18T13:08:54.193Z,27.75
2023-03-18T13:11:50.442Z,29.61
2023-03-18T13:14:27.308Z,28.00
2023-03-18T13:16:58.344Z,28.34
2023-03-18T13:19:27.134Z,28.00
2023-03-18T13:22:02.602Z,28.74
2023-03-18T13:24:54.218Z,28.23
2023-03-18T13:27:46.828Z,28.22
2023-03-18T13:30:25.891Z,25.88
2023-03-18T13:33:24.309Z,25.45
2023-03-18T13:36:04.966Z,24.07
2023-03-18T13:39:02.160Z,25.17
2023-03-18T13:42:05.649Z,24.61
2023-03-18T13:44:40.982Z,22.51
2023-03-18T13:47:17.522Z,20.53
2023-03-18T13:49:46.421Z,22.54
2023-03-18T13:52:27.312Z,21.72
2023-03-18T13:54:57.733Z,21.52
2023-03-18T13:57:47.964Z,24.07
2023-03-18T14:00:35.387Z,24.98
2023-03-18T14:03:22.869Z,22.94
2023-03-18T14:05:52.058Z,23.63
2023-03-18T14:08:44.633Z,17.34
2023-03-18T14:11:45.365Z,21.54
2023-03-18T14:14:56.568Z,22.08
2023-03-18T14:17:45.592Z,17.69
2023-03-18T14:20:30.096Z,18.00
2023-03-18T14:23:30.191Z,18.57
2023-03-18T14:26:04.447Z,15.33
2023-03-18T14:28:42.530Z,17.68
2023-03-18T14:31:22.203Z,16.18
2023-03-18T14:34:31.917Z,20.63
2023-03-18T14:37:29.358Z,25.88
2023-03-18T14:40:03.729Z,25.54
2023-03-18T14:42:56.654Z,27.34
2023-03-18T14:45:28.381Z,27.33
2023-03-18T14:47:57.674Z,29.41
2023-03-18T14:50:39.938Z,28.06
2023-03-18T14:53:17.478Z,27.96
2023-03-18T14:55:45.799Z,27.63
2023-03-18T14:58:17.360Z,29.63
2023-03-18T15:00:46.843Z,30.48
2023-03-18T15:03:20.686Z,32.14
2023-03-18T15:05:49.384Z,32.29
2023-03-18T15:08:21.066Z,34.02
2023-03-18T15:10:51.604Z,34.24
2023-03-18T15:13:21.366Z,35.03
2023-03-18T15:15:50.405Z,35.16
2023-03-18T15:18:22.260Z,34.99
2023-03-18T15:20:55.533Z,34.63
2023-03-18T15:23:30.654Z,35.57
2023-03-18T15:25:58.657Z,35.76
2023-03-18T15:28:29.644Z,37.04
2023-03-18T15:30:59.765Z,38.50
2023-03-18T15:33:32.330Z,38.00
2023-03-18T15:36:05.849Z,39.25
2023-03-18T15:38:35.153Z,38.88
2023-03-18T15:41:05.517Z,39.61
2023-03-18T15:43:42.196Z,39.38
2023-03-18T15:46:18.045Z,39.56
2023-03-18T15:48:54.391Z,40.00
2023-03-18T15:51:30.170Z,39.34
2023-03-18T15:54:05.784Z,38.46
2023-03-18T15:56:36.068Z,38.79
2023-03-18T15:59:08.909Z,39.00
2023-03-18T16:01:37.278Z,41.57
2023-03-18T16:04:10.122Z,42.70
2023-03-18T16:06:38.626Z,43.96
2023-03-18T16:09:17.047Z,44.81
2023-03-18T16:11:48.442Z,44.48
2023-03-18T16:14:18.713Z,44.38
2023-03-18T16:16:46.773Z,43.87
2023-03-18T16:19:16.661Z,45.33
2023-03-18T16:21:45.584Z,44.11
2023-03-18T16:24:14.663Z,45.09
2023-03-18T16:26:42.460Z,44.47
2023-03-18T16:29:16.005Z,44.98
2023-03-18T16:31:43.971Z,43.77
2023-03-18T16:34:16.171Z,44.27
2023-03-18T16:36:44.459Z,42.73
2023-03-18T16:39:18.332Z,42.40
2023-03-18T16:41:47.452Z,42.60
2023-03-18T16:44:17.293Z,42.24
2023-03-18T16:46:47.939Z,41.92
2023-03-18T16:49:22.362Z,43.69
2023-03-18T16:51:50.553Z,42.12
2023-03-18T16:54:22.379Z,42.31
2023-03-18T16:56:52.323Z,42.53
2023-03-18T16:59:20.582Z,44.49
2023-03-18T17:01:48.534Z,45.15
2023-03-18T17:04:24.527Z,45.59
2023-03-18T17:06:52.963Z,46.38
2023-03-18T17:09:23.121Z,47.01
2023-03-18T17:11:52.207Z,48.46
2023-03-18T17:14:30.829Z,48.96
2023-03-18T17:17:00.233Z,49.70
2023-03-18T17:19:28.461Z,50.58
2023-03-18T17:21:56.642Z,50.42
2023-03-18T17:24:25.721Z,49.84
2023-03-18T17:26:55.040Z,50.08
2023-03-18T17:29:25.548Z,49.65
2023-03-18T17:31:54.455Z,49.22
2023-03-18T17:34:23.833Z,50.51
2023-03-18T17:36:51.641Z,51.42
2023-03-18T17:39:19.409Z,53.71
2023-03-18T17:41:48.717Z,53.61
2023-03-18T17:44:26.631Z,54.54
2023-03-18T17:46:56.010Z,54.52
2023-03-18T17:49:26.464Z,54.94
2023-03-18T17:51:55.472Z,55.08
2023-03-18T17:54:25.406Z,55.87
2023-03-18T17:56:54.587Z,54.14
2023-03-18T17:59:22.398Z,55.65
2023-03-18T18:01:52.556Z,55.19
2023-03-18T18:04:22.529Z,55.44
2023-03-18T18:06:50.288Z,55.87
2023-03-18T18:09:19.288Z,57.86
2023-03-18T18:11:50.584Z,57.14
2023-03-18T18:14:23.200Z,57.22
2023-03-18T18:16:51.958Z,56.69
2023-03-18T18:19:19.746Z,57.77
2023-03-18T18:21:49.706Z,57.19
2023-03-18T18:24:23.821Z,57.94
2023-03-18T18:26:52.442Z,57.17
2023-03-18T18:29:23.895Z,57.95
2023-03-18T18:31:52.682Z,59.02
2023-03-18T18:34:21.162Z,59.86
2023-03-18T18:36:49.586Z,60.40
2023-03-18T18:39:17.957Z,58.92
2023-03-18T18:41:46.557Z,58.61
2023-03-18T18:44:14.654Z,57.72
2023-03-18T18:46:43.873Z,57.84
2023-03-18T18:49:21.906Z,60.13
2023-03-18T18:51:50.621Z,61.73
2023-03-18T18:54:19.551Z,59.01
2023-03-18T18:56:47.732Z,59.50
2023-03-18T18:59:24.379Z,59.39
2023-03-18T19:01:55.316Z,59.19
2023-03-18T19:04:23.670Z,59.75
2023-03-18T19:06:52.535Z,59.37
2023-03-18T19:09:23.628Z,60.15
2023-03-18T19:11:52.157Z,62.14
2023-03-18T19:14:22.036Z,62.76
2023-03-18T19:16:49.959Z,61.35
2023-03-18T19:19:21.619Z,61.34
2023-03-18T19:21:50.844Z,61.97
2023-03-18T19:24:27.307Z,61.22
2023-03-18T19:26:56.816Z,61.29
2023-03-18T19:29:25.146Z,60.66
2023-03-18T19:31:54.406Z,60.86
2023-03-18T19:34:24.320Z,62.55
2023-03-18T19:36:54.773Z,63.31
2023-03-18T19:39:24.510Z,65.11
2023-03-18T19:41:52.588Z,64.22
2023-03-18T19:44:22.191Z,63.19
2023-03-18T19:46:52.703Z,61.69
2023-03-18T19:49:24.296Z,60.23
2023-03-18T19:51:54.067Z,59.48
2023-03-18T19:54:28.105Z,60.18
2023-03-18T19:56:57.323Z,59.23
2023-03-18T19:59:36.063Z,58.83
2023-03-18T20:02:18.403Z,57.86
2023-03-18T20:04:47.777Z,56.76
2023-03-18T20:07:17.583Z,56.49
2023-03-18T20:09:45.522Z,56.39
2023-03-18T20:12:22.722Z,56.58
2023-03-18T20:14:51.127Z,56.35
2023-03-18T20:17:29.974Z,56.73
2023-03-18T20:19:58.547Z,56.37
2023-03-18T20:22:31.555Z,56.09
2023-03-18T20:24:59.934Z,55.03
2023-03-18T20:27:29.093Z,55.34
2023-03-18T20:29:56.931Z,54.76
2023-03-18T20:32:24.835Z,54.65
2023-03-18T20:34:52.583Z,54.76
2023-03-18T20:37:25.240Z,54.52
2023-03-18T20:39:54.556Z,54.33
2023-03-18T20:42:22.642Z,54.35
2023-03-18T20:44:50.581Z,54.38
2023-03-18T20:47:18.390Z,55.01
2023-03-18T20:49:46.446Z,54.56
2023-03-18T20:52:24.581Z,53.59
2023-03-18T20:54:54.153Z,53.80
2023-03-18T20:57:22.418Z,53.83
2023-03-18T20:59:50.302Z,54.20
2023-03-18T21:02:29.958Z,53.80
2023-03-18T21:04:57.995Z,53.70
2023-03-18T21:07:26.565Z,53.25
2023-03-18T21:09:55.937Z,53.18
2023-03-18T21:12:23.915Z,53.12
2023-03-18T21:14:51.849Z,53.07
2023-03-18T21:17:20.786Z,53.07
2023-03-18T21:19:49.796Z,53.69
2023-03-18T21:22:21.762Z,53.62
2023-03-18T21:24:50.421Z,53.74
2023-03-18T21:27:21.101Z,54.19
2023-03-18T21:29:49.633Z,53.90
2023-03-18T21:32:23.298Z,53.58
2023-03-18T21:34:52.159Z,53.75
2023-03-18T21:37:22.149Z,53.46
2023-03-18T21:39:50.371Z,52.92
2023-03-18T21:42:23.890Z,53.38
2023-03-18T21:44:52.091Z,54.01
2023-03-18T21:47:21.897Z,54.84
2023-03-18T21:49:49.682Z,52.88
2023-03-18T21:52:20.389Z,52.33
2023-03-18T21:54:48.284Z,52.27
2023-03-18T21:57:18.054Z,51.71
2023-03-18T21:59:47.524Z,51.81
2023-03-18T22:02:25.971Z,51.85
2023-03-18T22:04:54.218Z,51.21
2023-03-18T22:07:23.274Z,51.14
2023-03-18T22:09:51.381Z,50.76
2023-03-18T22:12:22.716Z,50.48
2023-03-18T22:14:51.933Z,51.02
2023-03-18T22:17:25.097Z,50.37
2023-03-18T22:19:53.182Z,50.48
2023-03-18T22:22:23.135Z,49.95
2023-03-18T22:24:52.456Z,49.81
2023-03-18T22:27:22.229Z,49.86
2023-03-18T22:29:53.126Z,50.35
2023-03-18T22:32:31.981Z,50.08
2023-03-18T22:34:59.746Z,50.42
2023-03-18T22:37:27.893Z,50.50
2023-03-18T22:39:55.769Z,50.17
2023-03-18T22:42:26.084Z,50.16
2023-03-18T22:44:55.397Z,50.20
2023-03-18T22:47:25.288Z,50.22
2023-03-18T22:49:53.486Z,50.92
2023-03-18T22:52:24.967Z,50.90
2023-03-18T22:54:55.378Z,50.80
2023-03-18T22:57:26.245Z,50.62
2023-03-18T22:59:56.729Z,50.81
2023-03-18T23:02:26.594Z,50.71
2023-03-18T23:04:57.456Z,50.45
2023-03-18T23:07:29.064Z,51.37
2023-03-18T23:09:59.065Z,51.51
2023-03-18T23:12:30.334Z,51.40
2023-03-18T23:15:00.288Z,51.91
2023-03-18T23:17:29.412Z,52.51
2023-03-18T23:19:57.508Z,52.46
2023-03-18T23:22:28.023Z,52.18
2023-03-18T23:24:56.275Z,52.15
2023-03-18T23:27:25.802Z,52.47
2023-03-18T23:29:54.126Z,52.63
2023-03-18T23:32:24.850Z,52.43
2023-03-18T23:34:52.746Z,56.13
2023-03-18T23:37:20.679Z,55.11
2023-03-18T23:39:48.444Z,54.27
2023-03-18T23:42:18.021Z,53.48
2023-03-18T23:44:46.590Z,52.95
2023-03-18T23:47:15.963Z,52.58
2023-03-18T23:49:45.127Z,52.35
2023-03-18T23:52:14.859Z,53.68
2023-03-18T23:54:42.836Z,53.73
2023-03-18T23:57:12.217Z,53.28
2023-03-18T23:59:40.085Z,53.54
